sensor_id;sensor_type;location;lat;lon;timestamp;temperature;humidity
10597;DHT22;5346;48.766;8.674;2023-04-06T00:02:19;-1.40;83.10
10597;DHT22;5346;48.766;8.674;2023-04-06T00:04:53;-1.40;86.50
10597;DHT22;5346;48.766;8.674;2023-04-06T00:07:20;-1.40;86.70
10597;DHT22;5346;48.766;8.674;2023-04-06T00:09:54;-1.40;71.50
10597;DHT22;5346;48.766;8.674;2023-04-06T00:12:28;-1.40;78.40
10597;DHT22;5346;48.766;8.674;2023-04-06T00:15:02;-1.30;78.60
10597;DHT22;5346;48.766;8.674;2023-04-06T00:17:32;-1.40;87.80
10597;DHT22;5346;48.766;8.674;2023-04-06T00:20:05;-1.40;90.20
10597;DHT22;5346;48.766;8.674;2023-04-06T00:22:40;-1.50;95.60
10597;DHT22;5346;48.766;8.674;2023-04-06T00:25:08;-1.50;87.60
10597;DHT22;5346;48.766;8.674;2023-04-06T00:27:43;-1.40;77.50
10597;DHT22;5346;48.766;8.674;2023-04-06T00:30:17;-1.30;82.70
10597;DHT22;5346;48.766;8.674;2023-04-06T00:32:53;-1.30;68.80
10597;DHT22;5346;48.766;8.674;2023-04-06T00:35:27;-1.30;78.90
10597;DHT22;5346;48.766;8.674;2023-04-06T00:38:01;-1.30;99.90
10597;DHT22;5346;48.766;8.674;2023-04-06T00:40:28;-1.30;82.00
10597;DHT22;5346;48.766;8.674;2023-04-06T00:43:02;-1.40;87.70
10597;DHT22;5346;48.766;8.674;2023-04-06T00:45:29;-1.40;93.10
10597;DHT22;5346;48.766;8.674;2023-04-06T00:47:56;-1.40;99.90
10597;DHT22;5346;48.766;8.674;2023-04-06T00:50:30;-1.40;84.90
10597;DHT22;5346;48.766;8.674;2023-04-06T00:53:05;-1.40;78.90
10597;DHT22;5346;48.766;8.674;2023-04-06T00:55:45;-1.30;55.60
10597;DHT22;5346;48.766;8.674;2023-04-06T00:58:13;-1.30;65.40
10597;DHT22;5346;48.766;8.674;2023-04-06T01:00:46;-1.30;53.60
10597;DHT22;5346;48.766;8.674;2023-04-06T01:03:20;-1.30;57.10
10597;DHT22;5346;48.766;8.674;2023-04-06T01:05:55;-1.30;55.60
10597;DHT22;5346;48.766;8.674;2023-04-06T01:08:31;-1.30;53.30
10597;DHT22;5346;48.766;8.674;2023-04-06T01:11:05;-1.40;67.00
10597;DHT22;5346;48.766;8.674;2023-04-06T01:13:32;-1.40;60.60
10597;DHT22;5346;48.766;8.674;2023-04-06T01:16:06;-1.40;66.00
10597;DHT22;5346;48.766;8.674;2023-04-06T01:18:40;-1.40;73.90
10597;DHT22;5346;48.766;8.674;2023-04-06T01:21:09;-1.40;69.00
10597;DHT22;5346;48.766;8.674;2023-04-06T01:23:48;-1.40;71.40
10597;DHT22;5346;48.766;8.674;2023-04-06T01:26:22;-1.40;90.80
10597;DHT22;5346;48.766;8.674;2023-04-06T01:28:56;-1.30;54.80
10597;DHT22;5346;48.766;8.674;2023-04-06T01:31:30;-1.40;58.10
10597;DHT22;5346;48.766;8.674;2023-04-06T01:34:04;-1.30;57.70
10597;DHT22;5346;48.766;8.674;2023-04-06T01:36:38;-1.30;50.50
10597;DHT22;5346;48.766;8.674;2023-04-06T01:39:15;-1.40;59.70
10597;DHT22;5346;48.766;8.674;2023-04-06T01:41:49;-1.40;69.80
10597;DHT22;5346;48.766;8.674;2023-04-06T01:44:17;-1.50;71.00
10597;DHT22;5346;48.766;8.674;2023-04-06T01:46:52;-1.40;63.00
10597;DHT22;5346;48.766;8.674;2023-04-06T01:49:26;-1.40;64.90
10597;DHT22;5346;48.766;8.674;2023-04-06T01:52:00;-1.40;73.20
10597;DHT22;5346;48.766;8.674;2023-04-06T01:54:34;-1.40;65.80
10597;DHT22;5346;48.766;8.674;2023-04-06T01:57:09;-1.40;69.50
10597;DHT22;5346;48.766;8.674;2023-04-06T01:59:43;-1.40;60.30
10597;DHT22;5346;48.766;8.674;2023-04-06T02:02:10;-1.40;61.10
10597;DHT22;5346;48.766;8.674;2023-04-06T02:04:46;-1.40;64.30
10597;DHT22;5346;48.766;8.674;2023-04-06T02:07:27;-1.40;57.10
10597;DHT22;5346;48.766;8.674;2023-04-06T02:10:02;-1.40;70.90
10597;DHT22;5346;48.766;8.674;2023-04-06T02:12:30;-1.30;63.00
10597;DHT22;5346;48.766;8.674;2023-04-06T02:15:03;-1.30;61.10
10597;DHT22;5346;48.766;8.674;2023-04-06T02:17:30;-1.40;66.90
10597;DHT22;5346;48.766;8.674;2023-04-06T02:20:05;-1.30;56.90
10597;DHT22;5346;48.766;8.674;2023-04-06T02:22:32;-1.20;58.70
10597;DHT22;5346;48.766;8.674;2023-04-06T02:25:06;-1.20;70.30
10597;DHT22;5346;48.766;8.674;2023-04-06T02:27:34;-1.20;58.10
10597;DHT22;5346;48.766;8.674;2023-04-06T02:30:09;-1.10;60.30
10597;DHT22;5346;48.766;8.674;2023-04-06T02:32:43;-1.00;37.80
10597;DHT22;5346;48.766;8.674;2023-04-06T02:35:17;-0.90;32.30
10597;DHT22;5346;48.766;8.674;2023-04-06T02:37:44;-0.90;27.80
10597;DHT22;5346;48.766;8.674;2023-04-06T02:40:18;-0.80;24.10
10597;DHT22;5346;48.766;8.674;2023-04-06T02:42:45;-0.80;21.00
10597;DHT22;5346;48.766;8.674;2023-04-06T02:45:19;-0.80;30.60
10597;DHT22;5346;48.766;8.674;2023-04-06T02:47:47;-1.00;38.90
10597;DHT22;5346;48.766;8.674;2023-04-06T02:50:20;-1.20;52.10
10597;DHT22;5346;48.766;8.674;2023-04-06T02:52:54;-1.20;45.60
10597;DHT22;5346;48.766;8.674;2023-04-06T02:55:35;-1.20;44.10
10597;DHT22;5346;48.766;8.674;2023-04-06T02:58:08;-1.20;56.40
10597;DHT22;5346;48.766;8.674;2023-04-06T03:00:42;-1.20;43.20
10597;DHT22;5346;48.766;8.674;2023-04-06T03:03:09;-1.20;62.70
10597;DHT22;5346;48.766;8.674;2023-04-06T03:05:43;-1.20;34.90
10597;DHT22;5346;48.766;8.674;2023-04-06T03:08:10;-1.20;53.00
10597;DHT22;5346;48.766;8.674;2023-04-06T03:10:44;-1.20;35.00
10597;DHT22;5346;48.766;8.674;2023-04-06T03:13:18;-1.20;45.50
10597;DHT22;5346;48.766;8.674;2023-04-06T03:15:51;-1.20;46.10
10597;DHT22;5346;48.766;8.674;2023-04-06T03:18:25;-1.20;47.20
10597;DHT22;5346;48.766;8.674;2023-04-06T03:20:53;-1.20;53.40
10597;DHT22;5346;48.766;8.674;2023-04-06T03:23:29;-1.20;56.10
10597;DHT22;5346;48.766;8.674;2023-04-06T03:30:58;-1.10;99.90
10597;DHT22;5346;48.766;8.674;2023-04-06T03:33:32;-1.10;24.70
10597;DHT22;5346;48.766;8.674;2023-04-06T03:35:59;-1.10;34.00
10597;DHT22;5346;48.766;8.674;2023-04-06T03:38:33;-1.10;23.90
10597;DHT22;5346;48.766;8.674;2023-04-06T03:41:00;-1.10;28.50
10597;DHT22;5346;48.766;8.674;2023-04-06T03:43:34;-1.10;24.40
10597;DHT22;5346;48.766;8.674;2023-04-06T03:46:02;-1.00;26.00
10597;DHT22;5346;48.766;8.674;2023-04-06T03:48:36;-1.10;22.10
10597;DHT22;5346;48.766;8.674;2023-04-06T03:51:04;-1.10;24.50
10597;DHT22;5346;48.766;8.674;2023-04-06T03:53:37;-1.10;26.00
10597;DHT22;5346;48.766;8.674;2023-04-06T03:56:11;-1.20;36.60
10597;DHT22;5346;48.766;8.674;2023-04-06T03:58:45;-1.30;35.20
10597;DHT22;5346;48.766;8.674;2023-04-06T04:01:19;-1.30;33.80
10597;DHT22;5346;48.766;8.674;2023-04-06T04:03:53;-1.30;35.30
10597;DHT22;5346;48.766;8.674;2023-04-06T04:06:27;-1.40;44.50
10597;DHT22;5346;48.766;8.674;2023-04-06T04:09:01;-1.40;52.20
10597;DHT22;5346;48.766;8.674;2023-04-06T04:11:36;-1.40;45.80
10597;DHT22;5346;48.766;8.674;2023-04-06T04:14:09;-1.30;34.50
10597;DHT22;5346;48.766;8.674;2023-04-06T04:16:36;-1.10;21.90
10597;DHT22;5346;48.766;8.674;2023-04-06T04:19:12;-1.00;17.30
10597;DHT22;5346;48.766;8.674;2023-04-06T04:21:44;-0.80;8.80
10597;DHT22;5346;48.766;8.674;2023-04-06T04:24:18;-0.60;1.00
10597;DHT22;5346;48.766;8.674;2023-04-06T04:26:45;-0.40;1.00
10597;DHT22;5346;48.766;8.674;2023-04-06T04:29:19;-0.30;1.00
10597;DHT22;5346;48.766;8.674;2023-04-06T04:31:48;-0.40;1.00
10597;DHT22;5346;48.766;8.674;2023-04-06T04:34:23;-0.40;1.00
10597;DHT22;5346;48.766;8.674;2023-04-06T04:36:52;-0.40;1.00
10597;DHT22;5346;48.766;8.674;2023-04-06T04:39:26;-0.50;1.00
10597;DHT22;5346;48.766;8.674;2023-04-06T04:42:00;-0.50;1.00
10597;DHT22;5346;48.766;8.674;2023-04-06T04:44:35;-0.50;1.00
10597;DHT22;5346;48.766;8.674;2023-04-06T04:47:04;-0.50;1.00
10597;DHT22;5346;48.766;8.674;2023-04-06T04:49:40;-0.50;1.00
10597;DHT22;5346;48.766;8.674;2023-04-06T04:52:07;-0.40;1.00
10597;DHT22;5346;48.766;8.674;2023-04-06T04:54:47;-0.40;1.00
10597;DHT22;5346;48.766;8.674;2023-04-06T04:57:27;-0.20;1.00
10597;DHT22;5346;48.766;8.674;2023-04-06T05:00:03;-0.10;1.00
10597;DHT22;5346;48.766;8.674;2023-04-06T05:02:32;-0.10;1.00
10597;DHT22;5346;48.766;8.674;2023-04-06T05:05:06;-0.10;1.00
10597;DHT22;5346;48.766;8.674;2023-04-06T05:07:33;0.00;1.00
10597;DHT22;5346;48.766;8.674;2023-04-06T05:10:01;0.00;1.00
10597;DHT22;5346;48.766;8.674;2023-04-06T05:12:34;0.00;1.00
10597;DHT22;5346;48.766;8.674;2023-04-06T05:15:02;-0.10;1.00
10597;DHT22;5346;48.766;8.674;2023-04-06T05:17:36;-0.10;1.00
10597;DHT22;5346;48.766;8.674;2023-04-06T05:20:05;-0.10;1.00
10597;DHT22;5346;48.766;8.674;2023-04-06T05:22:39;-0.10;1.00
10597;DHT22;5346;48.766;8.674;2023-04-06T05:25:14;-0.10;1.00
10597;DHT22;5346;48.766;8.674;2023-04-06T05:27:48;-0.20;1.00
10597;DHT22;5346;48.766;8.674;2023-04-06T05:30:23;-0.20;1.00
10597;DHT22;5346;48.766;8.674;2023-04-06T05:32:50;-0.10;1.00
10597;DHT22;5346;48.766;8.674;2023-04-06T05:35:24;-0.10;1.00
10597;DHT22;5346;48.766;8.674;2023-04-06T05:37:52;-0.10;1.00
10597;DHT22;5346;48.766;8.674;2023-04-06T05:40:25;-0.10;1.00
10597;DHT22;5346;48.766;8.674;2023-04-06T05:42:52;0.00;1.00
10597;DHT22;5346;48.766;8.674;2023-04-06T05:45:26;0.10;1.00
10597;DHT22;5346;48.766;8.674;2023-04-06T05:47:53;0.20;1.00
10597;DHT22;5346;48.766;8.674;2023-04-06T05:50:27;0.30;1.00
10597;DHT22;5346;48.766;8.674;2023-04-06T05:52:55;0.40;1.00
10597;DHT22;5346;48.766;8.674;2023-04-06T05:55:29;0.50;1.00
10597;DHT22;5346;48.766;8.674;2023-04-06T05:58:10;0.60;1.00
10597;DHT22;5346;48.766;8.674;2023-04-06T06:00:48;0.70;1.00
10597;DHT22;5346;48.766;8.674;2023-04-06T06:03:23;0.80;1.00
10597;DHT22;5346;48.766;8.674;2023-04-06T06:05:51;0.90;1.00
10597;DHT22;5346;48.766;8.674;2023-04-06T06:08:24;1.10;1.00
10597;DHT22;5346;48.766;8.674;2023-04-06T06:10:52;1.20;1.00
10597;DHT22;5346;48.766;8.674;2023-04-06T06:13:26;1.30;1.00
10597;DHT22;5346;48.766;8.674;2023-04-06T06:16:00;1.50;1.00
10597;DHT22;5346;48.766;8.674;2023-04-06T06:18:32;1.70;1.00
10597;DHT22;5346;48.766;8.674;2023-04-06T06:21:07;1.90;1.00
10597;DHT22;5346;48.766;8.674;2023-04-06T06:23:36;2.00;1.00
10597;DHT22;5346;48.766;8.674;2023-04-06T06:26:04;2.10;1.00
10597;DHT22;5346;48.766;8.674;2023-04-06T06:28:38;2.40;1.00
10597;DHT22;5346;48.766;8.674;2023-04-06T06:31:06;2.60;1.00
10597;DHT22;5346;48.766;8.674;2023-04-06T06:33:40;2.80;1.00
10597;DHT22;5346;48.766;8.674;2023-04-06T06:36:08;3.10;1.00
10597;DHT22;5346;48.766;8.674;2023-04-06T06:38:44;3.40;1.00
10597;DHT22;5346;48.766;8.674;2023-04-06T06:41:12;3.60;1.00
10597;DHT22;5346;48.766;8.674;2023-04-06T06:43:46;3.90;1.00
10597;DHT22;5346;48.766;8.674;2023-04-06T06:46:14;4.20;1.00
10597;DHT22;5346;48.766;8.674;2023-04-06T06:48:47;4.50;1.00
10597;DHT22;5346;48.766;8.674;2023-04-06T06:51:15;4.70;1.00
10597;DHT22;5346;48.766;8.674;2023-04-06T06:53:45;5.00;1.00
10597;DHT22;5346;48.766;8.674;2023-04-06T06:56:19;5.20;1.00
10597;DHT22;5346;48.766;8.674;2023-04-06T06:59:01;5.30;1.00
10597;DHT22;5346;48.766;8.674;2023-04-06T07:01:36;5.50;1.00
10597;DHT22;5346;48.766;8.674;2023-04-06T07:04:05;5.60;1.00
10597;DHT22;5346;48.766;8.674;2023-04-06T07:06:43;5.80;1.00
10597;DHT22;5346;48.766;8.674;2023-04-06T07:09:11;5.80;1.00
10597;DHT22;5346;48.766;8.674;2023-04-06T07:11:44;6.00;1.00
10597;DHT22;5346;48.766;8.674;2023-04-06T07:14:12;6.10;1.00
10597;DHT22;5346;48.766;8.674;2023-04-06T07:16:45;6.10;1.00
10597;DHT22;5346;48.766;8.674;2023-04-06T07:19:13;6.20;1.00
10597;DHT22;5346;48.766;8.674;2023-04-06T07:21:47;6.40;1.00
10597;DHT22;5346;48.766;8.674;2023-04-06T07:24:16;6.60;1.00
10597;DHT22;5346;48.766;8.674;2023-04-06T07:26:50;6.90;1.00
10597;DHT22;5346;48.766;8.674;2023-04-06T07:29:25;7.10;1.00
10597;DHT22;5346;48.766;8.674;2023-04-06T07:31:59;7.30;1.00
10597;DHT22;5346;48.766;8.674;2023-04-06T07:34:32;7.40;1.00
10597;DHT22;5346;48.766;8.674;2023-04-06T07:37:08;7.50;1.00
10597;DHT22;5346;48.766;8.674;2023-04-06T07:39:36;7.80;1.00
10597;DHT22;5346;48.766;8.674;2023-04-06T07:42:11;7.90;1.00
10597;DHT22;5346;48.766;8.674;2023-04-06T07:44:39;7.80;1.00
10597;DHT22;5346;48.766;8.674;2023-04-06T07:47:13;7.80;1.00
10597;DHT22;5346;48.766;8.674;2023-04-06T07:49:40;8.00;1.00
10597;DHT22;5346;48.766;8.674;2023-04-06T07:52:14;7.90;1.00
10597;DHT22;5346;48.766;8.674;2023-04-06T07:54:55;8.00;1.00
10597;DHT22;5346;48.766;8.674;2023-04-06T07:57:35;8.20;1.00
10597;DHT22;5346;48.766;8.674;2023-04-06T08:00:10;8.30;1.00
10597;DHT22;5346;48.766;8.674;2023-04-06T08:02:44;8.40;1.00
10597;DHT22;5346;48.766;8.674;2023-04-06T08:05:12;8.50;1.00
10597;DHT22;5346;48.766;8.674;2023-04-06T08:07:47;8.70;1.00
10597;DHT22;5346;48.766;8.674;2023-04-06T08:10:23;8.70;1.00
10597;DHT22;5346;48.766;8.674;2023-04-06T08:12:51;8.70;1.00
10597;DHT22;5346;48.766;8.674;2023-04-06T08:15:25;8.60;1.00
10597;DHT22;5346;48.766;8.674;2023-04-06T08:17:54;8.80;1.00
10597;DHT22;5346;48.766;8.674;2023-04-06T08:20:31;8.90;1.00
10597;DHT22;5346;48.766;8.674;2023-04-06T08:22:58;9.10;1.00
10597;DHT22;5346;48.766;8.674;2023-04-06T08:25:34;9.10;1.00
10597;DHT22;5346;48.766;8.674;2023-04-06T08:28:08;8.90;1.00
10597;DHT22;5346;48.766;8.674;2023-04-06T08:30:43;9.10;1.00
10597;DHT22;5346;48.766;8.674;2023-04-06T08:33:16;9.10;1.00
10597;DHT22;5346;48.766;8.674;2023-04-06T08:35:50;9.00;1.00
10597;DHT22;5346;48.766;8.674;2023-04-06T08:38:24;9.30;1.00
10597;DHT22;5346;48.766;8.674;2023-04-06T08:40:52;9.60;1.00
10597;DHT22;5346;48.766;8.674;2023-04-06T08:43:27;9.80;1.00
10597;DHT22;5346;48.766;8.674;2023-04-06T08:46:03;10.00;1.00
10597;DHT22;5346;48.766;8.674;2023-04-06T08:48:41;9.90;1.00
10597;DHT22;5346;48.766;8.674;2023-04-06T08:51:17;9.90;1.00
10597;DHT22;5346;48.766;8.674;2023-04-06T08:53:46;9.90;1.00
10597;DHT22;5346;48.766;8.674;2023-04-06T08:56:28;10.10;1.00
10597;DHT22;5346;48.766;8.674;2023-04-06T08:58:57;10.20;1.00
10597;DHT22;5346;48.766;8.674;2023-04-06T09:01:33;10.30;1.00
10597;DHT22;5346;48.766;8.674;2023-04-06T09:04:15;10.30;1.00
10597;DHT22;5346;48.766;8.674;2023-04-06T09:06:48;10.00;1.00
10597;DHT22;5346;48.766;8.674;2023-04-06T09:09:24;10.00;1.00
10597;DHT22;5346;48.766;8.674;2023-04-06T09:11:53;10.00;1.00
10597;DHT22;5346;48.766;8.674;2023-04-06T09:14:37;10.00;1.00
10597;DHT22;5346;48.766;8.674;2023-04-06T09:17:05;10.10;1.00
10597;DHT22;5346;48.766;8.674;2023-04-06T09:19:46;10.60;1.00
10597;DHT22;5346;48.766;8.674;2023-04-06T09:22:15;10.80;1.00
10597;DHT22;5346;48.766;8.674;2023-04-06T09:24:52;10.90;1.00
10597;DHT22;5346;48.766;8.674;2023-04-06T09:27:34;11.10;1.00
10597;DHT22;5346;48.766;8.674;2023-04-06T09:30:12;11.30;1.00
10597;DHT22;5346;48.766;8.674;2023-04-06T09:32:49;11.60;1.00
10597;DHT22;5346;48.766;8.674;2023-04-06T09:35:24;11.60;1.00
10597;DHT22;5346;48.766;8.674;2023-04-06T09:37:53;11.40;1.00
10597;DHT22;5346;48.766;8.674;2023-04-06T09:40:23;11.70;1.00
10597;DHT22;5346;48.766;8.674;2023-04-06T09:42:57;11.70;1.00
10597;DHT22;5346;48.766;8.674;2023-04-06T09:45:29;11.70;1.00
10597;DHT22;5346;48.766;8.674;2023-04-06T09:48:05;11.70;1.00
10597;DHT22;5346;48.766;8.674;2023-04-06T09:50:39;12.00;1.00
10597;DHT22;5346;48.766;8.674;2023-04-06T09:53:07;12.40;1.00
10597;DHT22;5346;48.766;8.674;2023-04-06T09:55:43;12.70;1.00
10597;DHT22;5346;48.766;8.674;2023-04-06T09:58:19;13.10;1.00
10597;DHT22;5346;48.766;8.674;2023-04-06T10:01:06;13.30;1.00
10597;DHT22;5346;48.766;8.674;2023-04-06T10:06:51;13.20;1.00
10597;DHT22;5346;48.766;8.674;2023-04-06T10:09:25;13.30;1.00
10597;DHT22;5346;48.766;8.674;2023-04-06T10:12:05;13.10;1.00
10597;DHT22;5346;48.766;8.674;2023-04-06T10:14:40;13.40;1.00
10597;DHT22;5346;48.766;8.674;2023-04-06T10:17:17;13.10;1.00
10597;DHT22;5346;48.766;8.674;2023-04-06T10:20:06;12.90;1.00
10597;DHT22;5346;48.766;8.674;2023-04-06T10:23:32;12.50;1.00
10597;DHT22;5346;48.766;8.674;2023-04-06T10:25:57;12.40;1.00
10597;DHT22;5346;48.766;8.674;2023-04-06T10:28:34;12.40;1.00
10597;DHT22;5346;48.766;8.674;2023-04-06T10:31:10;12.30;1.00
10597;DHT22;5346;48.766;8.674;2023-04-06T10:33:38;12.90;1.00
10597;DHT22;5346;48.766;8.674;2023-04-06T10:36:15;13.50;1.00
10597;DHT22;5346;48.766;8.674;2023-04-06T10:39:01;13.90;1.00
10597;DHT22;5346;48.766;8.674;2023-04-06T10:41:42;14.20;1.00
10597;DHT22;5346;48.766;8.674;2023-04-06T10:44:24;14.30;1.00
10597;DHT22;5346;48.766;8.674;2023-04-06T10:46:59;14.60;1.00
10597;DHT22;5346;48.766;8.674;2023-04-06T10:49:30;14.70;1.00
10597;DHT22;5346;48.766;8.674;2023-04-06T10:52:03;15.10;1.00
10597;DHT22;5346;48.766;8.674;2023-04-06T10:54:46;14.90;1.00
10597;DHT22;5346;48.766;8.674;2023-04-06T10:57:28;14.60;1.00
10597;DHT22;5346;48.766;8.674;2023-04-06T11:00:07;14.40;1.00
10597;DHT22;5346;48.766;8.674;2023-04-06T11:02:49;14.80;1.00
10597;DHT22;5346;48.766;8.674;2023-04-06T11:05:22;15.30;1.00
10597;DHT22;5346;48.766;8.674;2023-04-06T11:07:56;15.70;1.00
10597;DHT22;5346;48.766;8.674;2023-04-06T11:10:30;16.00;1.00
10597;DHT22;5346;48.766;8.674;2023-04-06T11:13:04;16.30;1.00
10597;DHT22;5346;48.766;8.674;2023-04-06T11:15:42;15.60;1.00
10597;DHT22;5346;48.766;8.674;2023-04-06T11:18:17;15.50;1.00
10597;DHT22;5346;48.766;8.674;2023-04-06T11:20:48;15.60;1.00
10597;DHT22;5346;48.766;8.674;2023-04-06T11:23:26;15.90;1.00
10597;DHT22;5346;48.766;8.674;2023-04-06T11:25:54;15.80;1.00
10597;DHT22;5346;48.766;8.674;2023-04-06T11:28:28;15.80;1.00
10597;DHT22;5346;48.766;8.674;2023-04-06T11:31:05;16.10;1.00
10597;DHT22;5346;48.766;8.674;2023-04-06T11:33:40;16.40;1.00
10597;DHT22;5346;48.766;8.674;2023-04-06T11:36:13;16.70;1.00
10597;DHT22;5346;48.766;8.674;2023-04-06T11:38:42;17.00;99.90
10597;DHT22;5346;48.766;8.674;2023-04-06T11:41:17;16.90;1.00
10597;DHT22;5346;48.766;8.674;2023-04-06T11:43:48;17.50;99.90
10597;DHT22;5346;48.766;8.674;2023-04-06T11:46:22;17.70;99.90
10597;DHT22;5346;48.766;8.674;2023-04-06T11:48:49;16.90;99.90
10597;DHT22;5346;48.766;8.674;2023-04-06T11:51:24;16.40;1.00
10597;DHT22;5346;48.766;8.674;2023-04-06T11:53:54;16.80;1.00
10597;DHT22;5346;48.766;8.674;2023-04-06T11:56:30;17.20;99.90
10597;DHT22;5346;48.766;8.674;2023-04-06T11:59:11;17.00;99.90
10597;DHT22;5346;48.766;8.674;2023-04-06T12:01:45;16.20;1.40
10597;DHT22;5346;48.766;8.674;2023-04-06T12:04:13;15.40;1.00
10597;DHT22;5346;48.766;8.674;2023-04-06T12:06:41;14.80;1.00
10597;DHT22;5346;48.766;8.674;2023-04-06T12:09:18;14.30;1.00
10597;DHT22;5346;48.766;8.674;2023-04-06T12:11:53;13.90;1.00
10597;DHT22;5346;48.766;8.674;2023-04-06T12:14:20;13.40;1.00
10597;DHT22;5346;48.766;8.674;2023-04-06T12:16:54;13.20;1.00
10597;DHT22;5346;48.766;8.674;2023-04-06T12:19:29;13.30;1.00
10597;DHT22;5346;48.766;8.674;2023-04-06T12:22:04;13.40;1.00
10597;DHT22;5346;48.766;8.674;2023-04-06T12:24:38;13.50;1.00
10597;DHT22;5346;48.766;8.674;2023-04-06T12:27:11;13.70;1.00
10597;DHT22;5346;48.766;8.674;2023-04-06T12:29:39;13.70;1.00
10597;DHT22;5346;48.766;8.674;2023-04-06T12:32:12;13.90;1.00
10597;DHT22;5346;48.766;8.674;2023-04-06T12:34:40;14.00;1.00
10597;DHT22;5346;48.766;8.674;2023-04-06T12:37:14;14.10;1.00
10597;DHT22;5346;48.766;8.674;2023-04-06T12:39:43;14.20;1.00
10597;DHT22;5346;48.766;8.674;2023-04-06T12:42:18;14.10;1.00
10597;DHT22;5346;48.766;8.674;2023-04-06T12:44:52;13.90;1.00
10597;DHT22;5346;48.766;8.674;2023-04-06T12:47:26;13.60;1.00
10597;DHT22;5346;48.766;8.674;2023-04-06T12:49:54;13.60;1.00
10597;DHT22;5346;48.766;8.674;2023-04-06T12:52:29;13.80;1.00
10597;DHT22;5346;48.766;8.674;2023-04-06T12:55:00;13.90;1.00
10597;DHT22;5346;48.766;8.674;2023-04-06T12:57:45;13.80;1.00
10597;DHT22;5346;48.766;8.674;2023-04-06T13:00:13;13.60;1.00
10597;DHT22;5346;48.766;8.674;2023-04-06T13:02:49;13.40;1.00
10597;DHT22;5346;48.766;8.674;2023-04-06T13:05:16;13.70;1.00
10597;DHT22;5346;48.766;8.674;2023-04-06T13:07:55;14.50;1.00
10597;DHT22;5346;48.766;8.674;2023-04-06T13:10:22;14.90;1.00
10597;DHT22;5346;48.766;8.674;2023-04-06T13:12:56;14.30;1.00
10597;DHT22;5346;48.766;8.674;2023-04-06T13:15:24;13.90;1.00
10597;DHT22;5346;48.766;8.674;2023-04-06T13:17:58;13.40;1.00
10597;DHT22;5346;48.766;8.674;2023-04-06T13:20:26;13.10;1.00
10597;DHT22;5346;48.766;8.674;2023-04-06T13:23:00;12.80;1.00
10597;DHT22;5346;48.766;8.674;2023-04-06T13:25:34;12.70;1.00
10597;DHT22;5346;48.766;8.674;2023-04-06T13:28:11;12.80;1.00
10597;DHT22;5346;48.766;8.674;2023-04-06T13:30:38;13.10;1.00
10597;DHT22;5346;48.766;8.674;2023-04-06T13:33:12;13.20;1.00
10597;DHT22;5346;48.766;8.674;2023-04-06T13:35:48;13.50;1.00
10597;DHT22;5346;48.766;8.674;2023-04-06T13:38:16;13.90;1.00
10597;DHT22;5346;48.766;8.674;2023-04-06T13:40:50;14.10;1.00
10597;DHT22;5346;48.766;8.674;2023-04-06T13:43:17;14.20;1.00
10597;DHT22;5346;48.766;8.674;2023-04-06T13:45:55;13.80;1.00
10597;DHT22;5346;48.766;8.674;2023-04-06T13:48:23;13.10;1.00
10597;DHT22;5346;48.766;8.674;2023-04-06T13:50:58;13.00;1.00
10597;DHT22;5346;48.766;8.674;2023-04-06T13:53:45;12.70;1.00
10597;DHT22;5346;48.766;8.674;2023-04-06T13:56:20;12.40;1.00
10597;DHT22;5346;48.766;8.674;2023-04-06T13:59:02;12.40;1.00
10597;DHT22;5346;48.766;8.674;2023-04-06T14:01:37;12.20;1.00
10597;DHT22;5346;48.766;8.674;2023-04-06T14:04:10;11.90;1.00
10597;DHT22;5346;48.766;8.674;2023-04-06T14:06:45;11.60;1.00
10597;DHT22;5346;48.766;8.674;2023-04-06T14:09:19;11.70;1.00
10597;DHT22;5346;48.766;8.674;2023-04-06T14:11:47;11.90;1.00
10597;DHT22;5346;48.766;8.674;2023-04-06T14:14:21;11.90;1.00
10597;DHT22;5346;48.766;8.674;2023-04-06T14:16:56;12.00;1.00
10597;DHT22;5346;48.766;8.674;2023-04-06T14:19:31;12.20;1.00
10597;DHT22;5346;48.766;8.674;2023-04-06T14:22:05;12.60;1.00
10597;DHT22;5346;48.766;8.674;2023-04-06T14:24:41;12.70;1.00
10597;DHT22;5346;48.766;8.674;2023-04-06T14:27:14;12.60;1.00
10597;DHT22;5346;48.766;8.674;2023-04-06T14:29:42;12.60;1.00
10597;DHT22;5346;48.766;8.674;2023-04-06T14:32:16;12.60;1.00
10597;DHT22;5346;48.766;8.674;2023-04-06T14:34:44;12.60;1.00
10597;DHT22;5346;48.766;8.674;2023-04-06T14:37:19;12.50;1.00
10597;DHT22;5346;48.766;8.674;2023-04-06T14:39:47;12.80;1.00
10597;DHT22;5346;48.766;8.674;2023-04-06T14:42:21;13.30;1.00
10597;DHT22;5346;48.766;8.674;2023-04-06T14:44:49;13.60;1.00
10597;DHT22;5346;48.766;8.674;2023-04-06T14:47:23;13.60;1.00
10597;DHT22;5346;48.766;8.674;2023-04-06T14:49:57;13.00;1.00
10597;DHT22;5346;48.766;8.674;2023-04-06T14:52:25;13.10;1.00
10597;DHT22;5346;48.766;8.674;2023-04-06T14:55:06;13.60;1.00
10597;DHT22;5346;48.766;8.674;2023-04-06T14:57:40;14.40;1.00
10597;DHT22;5346;48.766;8.674;2023-04-06T15:00:15;14.70;1.00
10597;DHT22;5346;48.766;8.674;2023-04-06T15:02:49;15.00;1.00
10597;DHT22;5346;48.766;8.674;2023-04-06T15:05:17;15.20;1.00
10597;DHT22;5346;48.766;8.674;2023-04-06T15:07:50;15.30;1.00
10597;DHT22;5346;48.766;8.674;2023-04-06T15:10:18;14.80;1.00
10597;DHT22;5346;48.766;8.674;2023-04-06T15:12:52;14.70;1.00
10597;DHT22;5346;48.766;8.674;2023-04-06T15:15:25;14.30;1.00
10597;DHT22;5346;48.766;8.674;2023-04-06T15:17:59;13.40;1.00
10597;DHT22;5346;48.766;8.674;2023-04-06T15:20:35;13.10;1.00
10597;DHT22;5346;48.766;8.674;2023-04-06T15:23:09;12.80;1.00
10597;DHT22;5346;48.766;8.674;2023-04-06T15:25:43;12.30;1.00
10597;DHT22;5346;48.766;8.674;2023-04-06T15:28:11;12.40;1.00
10597;DHT22;5346;48.766;8.674;2023-04-06T15:30:44;12.20;1.00
10597;DHT22;5346;48.766;8.674;2023-04-06T15:33:12;11.80;1.00
10597;DHT22;5346;48.766;8.674;2023-04-06T15:35:40;11.60;1.00
10597;DHT22;5346;48.766;8.674;2023-04-06T15:38:15;11.50;1.00
10597;DHT22;5346;48.766;8.674;2023-04-06T15:40:49;11.10;1.00
10597;DHT22;5346;48.766;8.674;2023-04-06T15:43:17;10.80;1.00
10597;DHT22;5346;48.766;8.674;2023-04-06T15:45:51;10.50;1.00
10597;DHT22;5346;48.766;8.674;2023-04-06T15:48:25;10.40;1.00
10597;DHT22;5346;48.766;8.674;2023-04-06T15:51:03;10.30;1.00
10597;DHT22;5346;48.766;8.674;2023-04-06T15:53:31;10.20;1.00
10597;DHT22;5346;48.766;8.674;2023-04-06T15:56:12;9.90;1.00
10597;DHT22;5346;48.766;8.674;2023-04-06T15:58:40;9.70;1.00
10597;DHT22;5346;48.766;8.674;2023-04-06T16:01:16;9.60;1.00
10597;DHT22;5346;48.766;8.674;2023-04-06T16:03:52;9.60;1.00
10597;DHT22;5346;48.766;8.674;2023-04-06T16:06:26;9.60;1.00
10597;DHT22;5346;48.766;8.674;2023-04-06T16:09:01;9.50;1.00
10597;DHT22;5346;48.766;8.674;2023-04-06T16:11:34;9.50;1.00
10597;DHT22;5346;48.766;8.674;2023-04-06T16:14:03;9.50;1.00
10597;DHT22;5346;48.766;8.674;2023-04-06T16:16:37;9.40;1.00
10597;DHT22;5346;48.766;8.674;2023-04-06T16:19:05;9.20;1.00
10597;DHT22;5346;48.766;8.674;2023-04-06T16:21:39;9.20;1.00
10597;DHT22;5346;48.766;8.674;2023-04-06T16:24:15;9.20;1.00
10597;DHT22;5346;48.766;8.674;2023-04-06T16:26:48;9.20;1.00
10597;DHT22;5346;48.766;8.674;2023-04-06T16:29:25;9.10;1.00
10597;DHT22;5346;48.766;8.674;2023-04-06T16:32:07;9.00;1.00
10597;DHT22;5346;48.766;8.674;2023-04-06T16:34:38;8.90;1.00
10597;DHT22;5346;48.766;8.674;2023-04-06T16:37:13;8.90;1.00
10597;DHT22;5346;48.766;8.674;2023-04-06T16:39:47;8.80;1.00
10597;DHT22;5346;48.766;8.674;2023-04-06T16:42:21;8.70;1.00
10597;DHT22;5346;48.766;8.674;2023-04-06T16:44:56;8.60;1.00
10597;DHT22;5346;48.766;8.674;2023-04-06T16:47:29;8.50;1.00
10597;DHT22;5346;48.766;8.674;2023-04-06T16:50:07;8.40;1.00